Warren, AR

11:04 AM CST on February 28, 2015 (GMT -0600)
Grider | Change Station
CLOSE
Current Station
Airport
Location: Pine Bluff,
Elevation: 207 ft
Nearby Weather Stations
Active Advisory: Flood Warning Active Notice: Record Report

Elev 207 ft 34.17 °N, 91.93 °W | Updated 1 hour ago

Mostly Cloudy
Mostly Cloudy
30 °F
Feels Like 22 °F
N
9
Wind Variable Wind from NE

Today
High -- | Low -- °F
--% Chance of Precip.
Yesterday
High -- | Low -- °F
Precip. -- in
6:38 AM 6:03 PM
Waxing Gibbous, 78% visible
Pressure 30.55 in
Visibility 10.0 miles
Clouds Overcast 7000 ft
Windchill 22 °F
Dew Point 21 °F
Humidity 69%
Rainfall 0.00 in
Snow Depth Not available.
UV 1 out of 12
Pollen 4.60 out of 12
Air Quality Not available.
Flu Activity Not available.
METAR KPBF 281553Z AUTO 05008KT 10SM OVC070 M01/M06 A3054 RMK AO2 SLP344 T10111061

More Conditions Fewer Conditions

Pressure 30.55 in
Visibility 10.0 miles
Clouds Overcast 7000 ft
Windchill 22 °F
Dew Point 21 °F
Humidity 69%
Rainfall 0.00 in
Snow Depth Not available.
UV 1 out of 12
Pollen 4.60 out of 12
Air Quality Not available.
Flu Activity Not available.
METAR KPBF 281553Z AUTO 05008KT 10SM OVC070 M01/M06 A3054 RMK AO2 SLP344 T10111061

More Conditions Fewer Conditions

10-Day Weather Forecast

Almanac

Astronomy

Feb. 28, 2015 Rise Set
Actual Time
Civil Twilight
Nautical Twilight
Astronomical Twilight
Moon
Length of Visible Light
Length of Day
Tomorrow will be .
, % of the Moon is Illuminated

Today's Extremes

State Highs State Lows

Community

WunderPhotos

Upload Photos

1,801,089 photos uploaded!

WunderBlogs® & News

Nearby

Air Quality

  Air Quality AQ Index Pollutant
Not available.

Snow Depth

Station Depth Elevation

Earthquake Activity

City Distance Mag. Time & Date
Minimum magnitude displayed is 2.5.

Coastal Water Temperatures

Place Temperature

Nearby Weather Stations

Flood Warning
Statement as of 10:17 AM CST on February 28, 2015

... Flood Warning extended until Tuesday morning... the Flood Warning
continues for
the Ouachita River at Thatcher l&d.
* Until Tuesday morning... or until the warning is cancelled.
* At 6:00 am Saturday the stage was 79.4 feet.
* Minor flooding is occurring and minor flooding is forecast.
* Flood stage is 79.0 feet.
* Forecast... the river is near crest and will fall to below flood stage by
Monday morning.
* Impacts at 79.0 feet... property in low lying areas needs to be
removed. Access roads to oil and gas rigs may be flooded.



             Fld observed forecast 7 am
location stg stg day time sun Mon Tue Wed Thu

Ouachita River
Thatcher l 79 79.4 Sat 06 am 79.2 78.9 78.4 77.7 77.0




Lat... Lon 3311 9223 3323 9236 3329 9261 3338 9247
3333 9226 3322 9212